Time;durP1;ratioP1;P1;durP2;ratioP2;P2;SDS_P1;SDS_P2;PMS_P1;PMS_P2;Temp;Humidity;BMP_temperature;BMP_pressure;BME280_temperature;BME280_humidity;BME280_pressure;Samples;Min_cycle;Max_cycle;Signal;HPM_P1;HPM_P2
2021/12/01 00:00:20;;;;;;;15.18;12.60;;;10.30;99.90;;;;;;5092840;28;20060;-66
2021/12/01 00:02:52;;;;;;;12.65;11.35;;;10.40;99.90;;;;;;5092671;28;20044;-66
2021/12/01 00:05:18;;;;;;;12.55;11.38;;;10.40;99.90;;;;;;5092717;28;20032;-66
2021/12/01 00:07:44;;;;;;;12.15;10.85;;;10.30;99.90;;;;;;5074688;28;20031;-66
2021/12/01 00:10:10;;;;;;;10.80;9.80;;;10.40;99.90;;;;;;5074492;28;20020;-66
2021/12/01 00:12:36;;;;;;;9.95;9.05;;;10.40;99.90;;;;;;5092743;28;20020;-66
2021/12/01 00:15:02;;;;;;;9.32;8.43;;;10.40;99.90;;;;;;5092538;28;20034;-66
2021/12/01 00:17:28;;;;;;;7.90;7.20;;;10.40;99.90;;;;;;5074414;28;20031;-66
2021/12/01 00:19:53;;;;;;;7.32;6.63;;;10.40;99.90;;;;;;5074585;28;20028;-66
2021/12/01 00:22:20;;;;;;;6.88;5.88;;;10.40;99.90;;;;;;5092672;28;20032;-66
2021/12/01 00:24:45;;;;;;;6.13;5.57;;;10.40;99.90;;;;;;5092416;28;20063;-66
2021/12/01 00:27:11;;;;;;;5.30;4.80;;;10.40;99.90;;;;;;5074521;28;20051;-66
2021/12/01 00:29:37;;;;;;;5.40;4.90;;;10.40;99.90;;;;;;5074232;28;20031;-66
2021/12/01 00:32:04;;;;;;;5.35;4.85;;;10.40;99.90;;;;;;5074843;28;20028;-66
2021/12/01 00:34:31;;;;;;;4.70;4.30;;;10.40;99.90;;;;;;5078164;28;20028;-66
2021/12/01 00:36:57;;;;;;;5.13;4.28;;;10.40;99.90;;;;;;5078570;28;20028;-66
2021/12/01 00:39:22;;;;;;;4.90;4.40;;;10.40;99.90;;;;;;5096636;28;20035;-66
2021/12/01 00:41:49;;;;;;;5.03;3.83;;;10.40;99.90;;;;;;5096521;28;20028;-65
2021/12/01 00:44:15;;;;;;;4.50;4.10;;;10.40;99.90;;;;;;5096301;28;20241;-66
2021/12/01 00:47:04;;;;;;;5.45;4.30;;;10.40;99.90;;;;;;5078212;28;20051;-66
2021/12/01 00:49:31;;;;;;;4.72;4.10;;;10.40;99.90;;;;;;5096292;28;20028;-66
2021/12/01 00:51:57;;;;;;;4.88;4.35;;;10.40;99.90;;;;;;5096413;28;20031;-66
2021/12/01 00:54:23;;;;;;;4.78;4.38;;;10.40;99.90;;;;;;5096027;28;20032;-66
2021/12/01 00:56:49;;;;;;;6.40;4.15;;;10.40;99.90;;;;;;5077863;28;20016;-66
2021/12/01 00:59:15;;;;;;;4.22;3.83;;;10.50;99.90;;;;;;5096197;28;20027;-66
2021/12/01 01:01:41;;;;;;;5.55;4.35;;;10.40;99.90;;;;;;5077637;28;20039;-66
2021/12/01 01:04:07;;;;;;;4.85;4.35;;;10.50;99.90;;;;;;5077950;28;20020;-66
2021/12/01 01:06:33;;;;;;;4.55;4.13;;;10.50;99.90;;;;;;5077710;28;20028;-66
2021/12/01 01:09:00;;;;;;;5.15;4.53;;;10.50;99.90;;;;;;5095940;28;20028;-66
2021/12/01 01:16:54;;;;;;;4.25;3.70;;;10.60;99.90;;;;;;5086199;28;20027;-66
2021/12/01 01:19:20;;;;;;;4.20;3.72;;;10.60;99.90;;;;;;5077669;28;20016;-66
2021/12/01 01:21:50;;;;;;;4.55;4.07;;;10.60;99.90;;;;;;5095464;28;20399;-66
2021/12/01 01:24:17;;;;;;;4.25;3.67;;;10.60;99.90;;;;;;5095770;28;20415;-65
2021/12/01 01:26:43;;;;;;;3.97;3.25;;;10.60;99.90;;;;;;5077170;28;20452;-66
2021/12/01 01:29:09;;;;;;;3.47;3.13;;;10.60;99.90;;;;;;5095618;28;20153;-66
2021/12/01 01:31:36;;;;;;;3.22;2.72;;;10.70;99.90;;;;;;5077345;28;20115;-66
2021/12/01 01:34:03;;;;;;;2.95;2.65;;;10.60;99.90;;;;;;5095522;28;20028;-66
2021/12/01 01:36:29;;;;;;;2.90;2.60;;;10.60;99.90;;;;;;5077060;28;20028;-66
2021/12/01 01:38:56;;;;;;;2.55;2.35;;;10.60;99.90;;;;;;5095450;28;20024;-66
2021/12/01 01:41:22;;;;;;;2.88;2.42;;;10.60;99.90;;;;;;5077011;28;20055;-66
2021/12/01 01:43:49;;;;;;;2.63;2.42;;;10.50;99.90;;;;;;5094682;28;20060;-66
2021/12/01 01:46:16;;;;;;;2.50;2.30;;;10.50;99.90;;;;;;5095010;28;20047;-66
2021/12/01 01:48:47;;;;;;;3.92;2.38;;;10.50;99.90;;;;;;5095107;28;20028;-66
2021/12/01 01:51:14;;;;;;;3.03;2.47;;;10.40;99.90;;;;;;5077112;28;20596;-66
2021/12/01 01:53:40;;;;;;;5.03;2.47;;;10.50;99.90;;;;;;5094960;28;20028;-66
2021/12/01 01:56:06;;;;;;;2.67;2.47;;;10.40;99.90;;;;;;5076724;28;20492;-67
2021/12/01 01:58:32;;;;;;;3.22;2.85;;;10.40;99.90;;;;;;5076736;28;20026;-66
2021/12/01 02:01:09;;;;;;;3.55;2.58;;;10.40;99.90;;;;;;5094717;28;20020;-66
2021/12/01 02:03:41;;;;;;;3.85;2.90;;;10.40;99.90;;;;;;5094807;28;20032;-66
2021/12/01 02:06:09;;;;;;;3.10;2.53;;;10.40;99.90;;;;;;5094918;28;20062;-66
2021/12/01 02:08:37;;;;;;;3.13;2.42;;;10.40;99.90;;;;;;5094729;28;20024;-66
2021/12/01 02:11:05;;;;;;;2.45;1.98;;;10.40;99.90;;;;;;5094661;28;20024;-67
2021/12/01 02:13:32;;;;;;;2.53;2.33;;;10.40;99.90;;;;;;5076452;28;20388;-66
2021/12/01 02:15:59;;;;;;;2.10;1.90;;;10.30;99.90;;;;;;5094528;28;20024;-66
2021/12/01 02:18:25;;;;;;;2.45;2.25;;;10.30;99.90;;;;;;5076378;28;20077;-66
2021/12/01 02:21:11;;;;;;;3.58;2.35;;;10.30;99.90;;;;;;5076263;28;20027;-66
2021/12/01 02:23:41;;;;;;;3.20;2.90;;;10.30;99.90;;;;;;5076334;28;20028;-66
2021/12/01 02:26:07;;;;;;;3.20;2.90;;;10.20;99.90;;;;;;5094574;28;20099;-66
2021/12/01 02:28:34;;;;;;;3.08;2.78;;;10.20;99.90;;;;;;5094032;28;20028;-66
2021/12/01 02:31:00;;;;;;;2.78;2.58;;;10.20;99.90;;;;;;5094371;28;20046;-66
2021/12/01 02:33:25;;;;;;;5.03;3.13;;;10.10;99.90;;;;;;5076352;28;20428;-66
2021/12/01 02:35:52;;;;;;;3.30;3.00;;;10.10;99.90;;;;;;5076070;28;20462;-66
2021/12/01 02:38:18;;;;;;;2.80;2.50;;;10.00;99.90;;;;;;5094321;28;20400;-66
2021/12/01 02:40:45;;;;;;;3.20;2.90;;;10.00;99.90;;;;;;5094078;28;20445;-66
2021/12/01 02:43:10;;;;;;;2.97;2.40;;;10.00;99.90;;;;;;5094007;28;20016;-66
2021/12/01 02:45:36;;;;;;;2.97;2.35;;;10.00;99.90;;;;;;5094032;28;20028;-66
2021/12/01 02:48:02;;;;;;;2.33;2.05;;;10.00;99.90;;;;;;5094306;28;20032;-66
2021/12/01 02:50:28;;;;;;;2.95;2.65;;;9.90;99.90;;;;;;5075811;28;20028;-66
2021/12/01 02:52:54;;;;;;;2.53;2.05;;;9.90;99.90;;;;;;5093972;28;20024;-66
2021/12/01 02:55:21;;;;;;;2.17;1.98;;;9.90;99.90;;;;;;5075352;28;20070;-66
2021/12/01 02:57:50;;;;;;;3.58;2.22;;;9.90;99.90;;;;;;5093035;28;20020;-66
2021/12/01 03:00:18;;;;;;;2.08;1.77;;;9.80;99.90;;;;;;5093862;28;20024;-67
2021/12/01 03:02:45;;;;;;;2.13;1.92;;;9.90;99.90;;;;;;5093633;28;20555;-66
2021/12/01 03:05:11;;;;;;;2.17;1.92;;;9.80;99.90;;;;;;5093854;28;20036;-66
2021/12/01 03:07:37;;;;;;;2.53;1.70;;;9.80;99.90;;;;;;5075434;28;20023;-66
2021/12/01 03:10:05;;;;;;;1.98;1.70;;;9.80;99.90;;;;;;5093687;28;20027;-66
2021/12/01 03:12:32;;;;;;;4.43;1.92;;;9.80;99.90;;;;;;5093440;28;20036;-66
2021/12/01 03:14:59;;;;;;;2.85;1.50;;;9.70;99.90;;;;;;5093443;28;20036;-66
2021/12/01 03:17:29;;;;;;;1.73;1.63;;;9.70;99.90;;;;;;5093405;28;20021;-66
2021/12/01 03:19:56;;;;;;;2.08;1.75;;;9.70;99.90;;;;;;5075458;28;20039;-66
2021/12/01 03:22:22;;;;;;;1.55;1.45;;;9.60;99.90;;;;;;5093526;28;20035;-66
2021/12/01 03:24:50;;;;;;;2.90;1.70;;;9.60;99.90;;;;;;5093291;28;20070;-66
2021/12/01 03:27:16;;;;;;;2.35;1.30;;;9.60;99.90;;;;;;5093384;28;20027;-66
2021/12/01 03:29:42;;;;;;;1.70;1.50;;;9.60;99.90;;;;;;5093220;28;20552;-66
2021/12/01 03:32:08;;;;;;;2.15;1.58;;;9.60;99.90;;;;;;5092079;28;20035;-66
2021/12/01 03:34:37;;;;;;;2.47;1.40;;;9.60;99.90;;;;;;5093207;28;20059;-66
2021/12/01 03:37:03;;;;;;;2.03;1.63;;;9.60;99.90;;;;;;5093198;28;20023;-66
2021/12/01 03:39:29;;;;;;;2.40;1.35;;;9.50;99.90;;;;;;5074934;28;20258;-66
2021/12/01 03:41:55;;;;;;;2.40;1.60;;;9.50;99.90;;;;;;5093127;28;20024;-66
2021/12/01 03:44:20;;;;;;;2.85;1.30;;;9.50;99.90;;;;;;5093004;28;20028;-66
2021/12/01 03:46:46;;;;;;;1.83;1.60;;;9.50;99.90;;;;;;5093003;28;20028;-66
2021/12/01 03:49:12;;;;;;;2.38;1.50;;;9.50;99.90;;;;;;5075085;28;20494;-66
2021/12/01 03:51:37;;;;;;;3.90;2.00;;;9.50;99.90;;;;;;5092709;28;20047;-66
2021/12/01 03:54:03;;;;;;;1.95;1.75;;;9.50;99.90;;;;;;5092934;28;20028;-66
2021/12/01 03:56:30;;;;;;;2.40;1.80;;;9.50;99.90;;;;;;5074709;28;20507;-66
2021/12/01 03:58:56;;;;;;;2.60;2.40;;;9.50;99.90;;;;;;5074724;28;20078;-66
2021/12/01 04:01:22;;;;;;;3.50;2.35;;;9.40;99.90;;;;;;5074613;28;20044;-66
2021/12/01 04:03:47;;;;;;;2.25;1.80;;;9.40;99.90;;;;;;5092708;28;20111;-66
2021/12/01 04:06:13;;;;;;;2.22;1.95;;;9.40;99.90;;;;;;5074782;28;20119;-66
2021/12/01 04:08:40;;;;;;;2.83;1.90;;;9.40;99.90;;;;;;5074217;28;20028;-66
2021/12/01 04:11:05;;;;;;;2.22;1.70;;;9.40;99.90;;;;;;5092825;28;20020;-66
2021/12/01 04:13:31;;;;;;;2.63;1.88;;;9.40;99.90;;;;;;5074528;28;20124;-66
2021/12/01 04:15:56;;;;;;;4.78;1.90;;;9.40;99.90;;;;;;5092689;28;20028;-66
2021/12/01 04:18:22;;;;;;;4.55;2.08;;;9.40;99.90;;;;;;5074494;28;20030;-66
2021/12/01 04:20:47;;;;;;;2.15;1.80;;;9.40;99.90;;;;;;5092647;28;20042;-65
2021/12/01 04:23:13;;;;;;;5.05;1.70;;;9.40;99.90;;;;;;5092627;28;20044;-66
2021/12/01 04:25:38;;;;;;;2.97;2.08;;;9.40;99.90;;;;;;5074509;28;20454;-66
2021/12/01 04:28:04;;;;;;;2.67;1.95;;;9.30;99.90;;;;;;5074485;28;20050;-66
2021/12/01 04:30:30;;;;;;;3.53;2.05;;;9.40;99.90;;;;;;5092470;28;20020;-66
2021/12/01 04:32:56;;;;;;;3.28;2.08;;;9.40;99.90;;;;;;5092548;28;20106;-66
2021/12/01 04:35:24;;;;;;;2.50;2.10;;;9.40;99.90;;;;;;5074431;28;20030;-66
2021/12/01 04:37:49;;;;;;;2.63;1.98;;;9.40;99.90;;;;;;5092988;28;20442;-66
2021/12/01 04:40:17;;;;;;;2.75;2.03;;;9.40;99.90;;;;;;5092531;28;20063;-66
2021/12/01 04:42:43;;;;;;;2.72;1.80;;;9.50;99.90;;;;;;5074367;28;20051;-66
2021/12/01 04:45:14;;;;;;;2.83;2.30;;;9.50;99.90;;;;;;5092423;28;20024;-66
2021/12/01 04:47:54;;;;;;;4.65;2.70;;;9.50;99.90;;;;;;5092390;28;20024;-66
2021/12/01 04:50:23;;;;;;;3.20;2.90;;;9.50;99.90;;;;;;5092399;28;20047;-66
2021/12/01 04:52:49;;;;;;;3.30;2.43;;;9.40;99.90;;;;;;5092412;28;20074;-66
2021/12/01 04:55:15;;;;;;;4.35;3.10;;;9.40;99.90;;;;;;5074308;28;20396;-66
2021/12/01 04:57:43;;;;;;;7.50;3.08;;;9.40;99.90;;;;;;5092296;28;20035;-66
2021/12/01 05:00:11;;;;;;;3.83;3.42;;;9.20;99.90;;;;;;5074053;28;20024;-66
2021/12/01 05:02:37;;;;;;;4.72;3.83;;;9.10;99.90;;;;;;5091971;28;20032;-66
2021/12/01 05:05:03;;;;;;;3.70;3.30;;;9.00;99.90;;;;;;5092401;28;20039;-66
2021/12/01 05:07:29;;;;;;;4.07;3.17;;;9.00;99.90;;;;;;5092251;28;20031;-66
2021/12/01 05:09:56;;;;;;;3.58;3.05;;;8.90;99.90;;;;;;5074246;28;20476;-66
2021/12/01 05:12:21;;;;;;;6.80;4.13;;;8.90;99.90;;;;;;5092227;28;20494;-66
2021/12/01 05:14:47;;;;;;;4.20;3.15;;;8.80;99.90;;;;;;5092135;28;20036;-66
2021/12/01 05:17:12;;;;;;;6.90;2.90;;;8.80;99.90;;;;;;5073883;28;20110;-66
2021/12/01 05:19:38;;;;;;;3.63;3.03;;;8.80;99.90;;;;;;5093259;28;20415;-66
2021/12/01 05:22:05;;;;;;;4.05;2.70;;;8.80;99.90;;;;;;5095617;28;20069;-66
2021/12/01 05:24:31;;;;;;;4.18;3.15;;;8.70;99.90;;;;;;5076930;28;20032;-66
2021/12/01 05:26:56;;;;;;;4.05;2.65;;;8.70;99.90;;;;;;5095112;28;20032;-66
2021/12/01 05:29:23;;;;;;;5.30;3.00;;;8.70;99.90;;;;;;5076897;28;20024;-66
2021/12/01 05:31:50;;;;;;;3.85;2.55;;;8.60;99.90;;;;;;5095308;28;20027;-66
2021/12/01 05:34:16;;;;;;;4.63;2.50;;;8.60;99.90;;;;;;5077305;28;20028;-65
2021/12/01 05:36:42;;;;;;;2.90;2.10;;;8.70;99.90;;;;;;5095356;28;20020;-66
2021/12/01 05:39:07;;;;;;;7.22;2.30;;;8.70;99.90;;;;;;5077333;28;20024;-66
2021/12/01 05:41:33;;;;;;;3.08;2.25;;;8.70;99.90;;;;;;5077150;28;20538;-66
2021/12/01 05:43:58;;;;;;;3.33;2.10;;;8.70;99.90;;;;;;5077168;28;20055;-66
2021/12/01 05:46:27;;;;;;;3.78;2.55;;;8.70;99.90;;;;;;5095232;28;20028;-66
2021/12/01 05:48:53;;;;;;;2.60;2.40;;;8.60;99.90;;;;;;5095162;28;20024;-65
2021/12/01 05:51:19;;;;;;;3.03;1.60;;;8.60;99.90;;;;;;5095408;28;20027;-66
2021/12/01 05:53:46;;;;;;;3.20;2.00;;;8.70;99.90;;;;;;5094921;28;20077;-66
2021/12/01 05:56:11;;;;;;;2.35;1.63;;;8.70;99.90;;;;;;5077122;28;20101;-66
2021/12/01 05:58:37;;;;;;;3.10;1.67;;;8.60;99.90;;;;;;5094926;28;20067;-66
2021/12/01 06:01:02;;;;;;;3.28;1.30;;;8.60;99.90;;;;;;5076502;28;20059;-66
2021/12/01 06:03:28;;;;;;;2.13;1.38;;;8.60;99.90;;;;;;5076816;28;20026;-66
2021/12/01 06:05:54;;;;;;;1.90;1.10;;;8.60;99.90;;;;;;5094966;28;20016;-65
2021/12/01 06:08:20;;;;;;;1.45;1.15;;;8.60;99.90;;;;;;5076731;28;20043;-66
2021/12/01 06:10:46;;;;;;;3.65;1.92;;;8.60;99.90;;;;;;5094750;28;20476;-66
2021/12/01 06:13:16;;;;;;;1.45;0.95;;;8.60;99.90;;;;;;5094785;28;20070;-66
2021/12/01 06:15:41;;;;;;;;;;;8.60;99.90;;;;;;5095073;28;20028;-65
2021/12/01 06:18:07;;;;;;;1.45;0.90;;;8.50;99.90;;;;;;5094526;28;19904;-65
2021/12/01 06:20:32;;;;;;;1.75;1.00;;;8.50;99.90;;;;;;5094499;28;20525;-65
2021/12/01 06:22:58;;;;;;;2.35;1.00;;;8.50;99.90;;;;;;5094730;28;20035;-65
2021/12/01 06:25:24;;;;;;;1.98;0.90;;;8.50;99.90;;;;;;5076446;28;20434;-66
2021/12/01 06:27:49;;;;;;;2.25;0.80;;;8.50;99.90;;;;;;5094459;28;20052;-65
2021/12/01 06:30:15;;;;;;;1.77;0.90;;;8.50;99.90;;;;;;5093914;28;20016;-66
2021/12/01 06:32:41;;;;;;;1.38;0.77;;;8.50;99.90;;;;;;5094147;28;20024;-65
2021/12/01 06:35:06;;;;;;;1.00;0.80;;;8.50;99.90;;;;;;5094299;28;20028;-66
2021/12/01 06:37:32;;;;;;;1.10;1.00;;;8.50;99.90;;;;;;5076217;28;20476;-65
2021/12/01 06:39:58;;;;;;;1.83;0.88;;;8.50;99.90;;;;;;5094188;28;20024;-66
2021/12/01 06:42:23;;;;;;;1.13;0.75;;;8.60;99.90;;;;;;5094234;28;20084;-65
2021/12/01 06:44:49;;;;;;;0.98;0.80;;;8.50;99.90;;;;;;5093944;28;20039;-65
2021/12/01 06:47:16;;;;;;;1.10;0.60;;;8.50;99.90;;;;;;5094134;28;20062;-65
2021/12/01 06:49:45;;;;;;;1.02;0.70;;;8.50;99.90;;;;;;5077439;28;20078;-66
2021/12/01 06:52:14;;;;;;;1.52;0.60;;;8.50;99.90;;;;;;5073334;28;20111;-65
2021/12/01 06:54:40;;;;;;;1.17;0.65;;;8.50;99.90;;;;;;5073238;28;20034;-65
2021/12/01 06:57:06;;;;;;;1.23;0.90;;;8.60;99.90;;;;;;5055686;28;20027;-65
2021/12/01 06:59:31;;;;;;;2.88;0.90;;;8.60;99.90;;;;;;5073480;28;20029;-65
2021/12/01 07:01:57;;;;;;;1.00;0.70;;;8.60;99.90;;;;;;5061912;28;20035;-66
2021/12/01 07:04:22;;;;;;;1.42;0.90;;;8.50;99.90;;;;;;5090890;28;20028;-65
2021/12/01 07:07:04;;;;;;;1.52;0.93;;;8.60;99.90;;;;;;5090742;28;20028;-65
2021/12/01 07:09:55;;;;;;;;;;;;;;;;;;;;;
2021/12/01 07:12:23;;;;;;;1.77;0.90;;;8.60;99.90;;;;;;5086381;28;20040;-65
2021/12/01 07:14:48;;;;;;;1.80;0.90;;;8.60;99.90;;;;;;5086938;28;20032;-65
2021/12/01 07:17:14;;;;;;;1.42;1.05;;;8.60;99.90;;;;;;5087181;28;20020;-65
2021/12/01 07:20:00;;;;;;;2.53;1.40;;;8.60;99.90;;;;;;5057370;28;20017;-65
2021/12/01 07:22:49;;;;;;;1.95;1.20;;;8.60;99.90;;;;;;5084467;28;20056;-65
2021/12/01 07:25:15;;;;;;;1.73;1.30;;;8.60;99.90;;;;;;5091311;28;20545;-65
2021/12/01 07:27:40;;;;;;;1.92;1.27;;;8.60;99.90;;;;;;5073253;28;20024;-64
2021/12/01 07:30:07;;;;;;;2.00;1.60;;;8.60;99.90;;;;;;5067724;28;20020;-64
2021/12/01 07:32:33;;;;;;;2.65;1.95;;;8.60;99.90;;;;;;5088428;28;20037;-64
2021/12/01 07:34:59;;;;;;;2.30;1.55;;;8.60;99.90;;;;;;5088065;28;20028;-65
2021/12/01 07:37:24;;;;;;;2.10;1.70;;;8.60;99.90;;;;;;5066460;28;20472;-64
2021/12/01 07:39:51;;;;;;;4.53;1.88;;;8.70;99.90;;;;;;5088458;28;20028;-65
2021/12/01 07:42:40;;;;;;;;;;;;;;;;;;;;;
2021/12/01 07:48:29;;;;;;;5.55;3.22;;;8.70;99.90;;;;;;5073163;28;20024;-64
2021/12/01 07:50:55;;;;;;;3.08;2.78;;;8.70;99.90;;;;;;5082285;28;20020;-65
2021/12/01 07:53:22;;;;;;;3.95;3.55;;;8.80;99.90;;;;;;5083354;28;20024;-64
2021/12/01 07:55:47;;;;;;;4.10;3.70;;;8.80;99.90;;;;;;5088179;28;20107;-64
2021/12/01 07:58:13;;;;;;;4.57;3.92;;;8.90;99.90;;;;;;5087016;28;20122;-64
2021/12/01 08:00:38;;;;;;;4.78;4.28;;;8.90;99.90;;;;;;5084747;28;20032;-65
2021/12/01 08:03:19;;;;;;;4.90;4.40;;;8.90;99.90;;;;;;5068319;28;20403;-65
2021/12/01 08:06:35;;;;;;;;;;;;;;;;;;;;;
2021/12/01 08:09:23;;;;;;;5.32;4.82;;;9.00;99.90;;;;;;5082963;28;20020;-65
2021/12/01 08:11:49;;;;;;;5.35;4.85;;;9.00;99.90;;;;;;5060474;28;20021;-65
2021/12/01 08:14:15;;;;;;;5.78;5.18;;;9.00;99.90;;;;;;5087531;28;20032;-65
2021/12/01 08:16:40;;;;;;;6.07;5.47;;;9.00;99.90;;;;;;5087774;28;20350;-65
2021/12/01 08:19:06;;;;;;;6.53;5.90;;;9.00;99.90;;;;;;5072646;28;20020;-65
2021/12/01 08:21:33;;;;;;;6.47;5.78;;;9.10;99.90;;;;;;5087067;28;20117;-65
2021/12/01 08:23:58;;;;;;;6.50;5.90;;;9.10;99.90;;;;;;5066011;28;20395;-65
2021/12/01 08:26:24;;;;;;;6.97;5.85;;;9.10;99.90;;;;;;5062291;28;20025;-65
2021/12/01 08:28:50;;;;;;;7.15;6.10;;;9.10;99.90;;;;;;5087925;28;20016;-65
2021/12/01 08:31:17;;;;;;;7.68;6.95;;;9.10;99.90;;;;;;5083973;28;20021;-65
2021/12/01 08:33:44;;;;;;;8.10;6.75;;;9.20;99.90;;;;;;5085444;28;20317;-65
2021/12/01 08:36:10;;;;;;;10.38;6.60;;;9.20;99.90;;;;;;5089695;28;20095;-66
2021/12/01 08:38:37;;;;;;;7.20;6.50;;;9.30;99.90;;;;;;5087058;28;20099;-65
2021/12/01 08:41:03;;;;;;;7.20;5.90;;;9.40;99.90;;;;;;5085754;28;20012;-65
2021/12/01 08:43:42;;;;;;;8.70;6.05;;;9.40;99.90;;;;;;5087319;28;20079;-65
2021/12/01 08:46:08;;;;;;;7.90;6.65;;;9.50;99.90;;;;;;5070451;28;20020;-65
2021/12/01 08:49:04;;;;;;;;;;;;;;;;;;;;;
2021/12/01 08:54:47;;;;;;;7.22;6.53;;;9.60;99.90;;;;;;5073997;28;20491;-65
2021/12/01 08:57:13;;;;;;;8.60;6.18;;;9.60;99.90;;;;;;5088540;28;20115;-65
2021/12/01 08:59:39;;;;;;;7.32;6.63;;;9.70;99.90;;;;;;5073131;28;20099;-65
2021/12/01 09:02:05;;;;;;;7.78;6.55;;;9.70;99.90;;;;;;5093590;28;20062;-65
2021/12/01 09:04:31;;;;;;;7.85;6.55;;;9.70;99.90;;;;;;5088379;28;20064;-65
2021/12/01 09:06:56;;;;;;;7.78;7.07;;;9.70;99.90;;;;;;5094787;28;20058;-65
2021/12/01 09:09:27;;;;;;;7.10;6.47;;;9.70;99.90;;;;;;5095985;28;20464;-66
2021/12/01 09:11:53;;;;;;;7.90;6.93;;;9.70;99.90;;;;;;5092596;28;20043;-65
2021/12/01 09:14:23;;;;;;;7.38;6.43;;;9.60;99.90;;;;;;5060869;28;20036;-65
2021/12/01 09:17:12;;;;;;;;;;;9.60;99.90;;;;;;5090749;28;20019;-65
2021/12/01 09:19:39;;;;;;;7.95;6.18;;;9.50;99.90;;;;;;5070147;28;19955;-65
2021/12/01 09:22:05;;;;;;;10.82;7.10;;;9.50;99.90;;;;;;5084409;28;20535;-65
2021/12/01 09:24:30;;;;;;;7.57;6.18;;;9.50;99.90;;;;;;5093410;28;20158;-66
2021/12/01 09:26:56;;;;;;;6.28;5.60;;;9.50;99.90;;;;;;5090759;28;20028;-65
2021/12/01 09:29:22;;;;;;;7.13;4.18;;;9.50;99.90;;;;;;5061122;28;20022;-65
2021/12/01 09:31:48;;;;;;;5.63;1.80;;;9.50;99.90;;;;;;5068793;28;20020;-65
2021/12/01 09:34:13;;;;;;;2.80;0.98;;;9.40;99.90;;;;;;5086979;28;20452;-65
2021/12/01 09:36:39;;;;;;;4.50;1.10;;;9.40;99.90;;;;;;5087059;28;20086;-65
2021/12/01 09:39:05;;;;;;;6.18;0.95;;;9.40;99.90;;;;;;5092513;28;20511;-66
2021/12/01 09:41:30;;;;;;;7.55;1.17;;;9.40;99.90;;;;;;5067267;28;20017;-65
2021/12/01 09:43:56;;;;;;;4.05;0.80;;;9.40;99.90;;;;;;5084972;28;20063;-65
2021/12/01 09:46:23;;;;;;;5.70;0.90;;;9.30;99.90;;;;;;5089959;28;20016;-65
2021/12/01 09:48:48;;;;;;;4.30;1.15;;;9.30;99.90;;;;;;5089980;28;20079;-65
2021/12/01 09:51:16;;;;;;;6.55;0.77;;;9.30;99.90;;;;;;5086283;28;20480;-66
2021/12/01 09:53:43;;;;;;;7.28;1.30;;;9.30;99.90;;;;;;5074092;28;20055;-66
2021/12/01 09:56:09;;;;;;;4.80;0.60;;;9.30;99.90;;;;;;5074913;28;20020;-66
2021/12/01 09:58:35;;;;;;;5.28;0.70;;;9.40;99.90;;;;;;5074737;28;20471;-66
2021/12/01 10:01:08;;;;;;;4.78;1.00;;;9.50;99.90;;;;;;5056583;28;20031;-66
2021/12/01 10:03:34;;;;;;;5.32;0.90;;;9.50;99.90;;;;;;5074190;28;20020;-66
2021/12/01 10:06:09;;;;;;;10.00;0.80;;;9.50;99.90;;;;;;5056060;28;20024;-66
2021/12/01 10:08:38;;;;;;;6.95;1.05;;;9.60;99.90;;;;;;5065859;28;20579;-66
2021/12/01 10:11:17;;;;;;;4.45;0.95;;;9.80;99.90;;;;;;5090779;28;20024;-66
2021/12/01 10:13:45;;;;;;;6.85;1.60;;;10.20;99.90;;;;;;5072060;28;20073;-66
2021/12/01 10:16:13;;;;;;;7.13;0.85;;;10.50;99.90;;;;;;5076093;28;20066;-66
2021/12/01 10:18:41;;;;;;;4.10;0.88;;;10.50;99.90;;;;;;5076442;28;20361;-66
2021/12/01 10:21:15;;;;;;;6.55;1.00;;;10.60;99.90;;;;;;5076374;28;20024;-66
2021/12/01 10:23:50;;;;;;;7.30;1.65;;;10.70;99.90;;;;;;5093891;28;20028;-65
2021/12/01 10:26:26;;;;;;;8.35;1.10;;;11.00;99.90;;;;;;5094765;28;20084;-66
2021/12/01 10:28:55;;;;;;;5.32;0.80;;;11.20;99.90;;;;;;5076351;28;20021;-66
2021/12/01 10:31:35;;;;;;;6.55;0.90;;;11.30;99.90;;;;;;5094421;28;20043;-67
2021/12/01 10:34:40;;;;;;;6.82;0.80;;;11.20;99.90;;;;;;5093715;28;20470;-66
2021/12/01 10:37:07;;;;;;;6.10;0.73;;;11.00;99.90;;;;;;5094179;28;20016;-66
2021/12/01 10:39:33;;;;;;;4.18;0.88;;;10.80;99.90;;;;;;5094150;28;20110;-66
2021/12/01 10:42:07;;;;;;;4.03;0.50;;;10.60;99.90;;;;;;5075616;28;20119;-66
2021/12/01 10:44:34;;;;;;;3.92;0.57;;;10.50;99.90;;;;;;5075589;28;20479;-65
2021/12/01 10:47:10;;;;;;;7.50;0.55;;;10.30;99.90;;;;;;5075928;28;20074;-66
2021/12/01 10:49:43;;;;;;;5.95;1.30;;;10.20;99.90;;;;;;5094074;28;20028;-66
2021/12/01 10:52:25;;;;;;;4.57;0.77;;;10.00;99.90;;;;;;5093603;28;20514;-66
2021/12/01 10:55:05;;;;;;;3.92;0.60;;;10.00;99.90;;;;;;5093522;28;20024;-66
2021/12/01 10:57:31;;;;;;;;;;;9.90;99.90;;;;;;5094224;28;20549;-66
2021/12/01 10:59:56;;;;;;;3.30;0.60;;;9.80;99.90;;;;;;5075626;28;19908;-65
2021/12/01 11:02:22;;;;;;;6.10;0.73;;;9.90;99.90;;;;;;5093510;28;20048;-65
2021/12/01 11:04:50;;;;;;;4.22;0.50;;;9.90;99.90;;;;;;5093572;28;20024;-65
2021/12/01 11:07:25;;;;;;;2.70;0.43;;;10.10;99.90;;;;;;5093575;28;20030;-66
2021/12/01 11:10:27;;;;;;;3.65;0.50;;;10.80;99.90;;;;;;5093447;28;20069;-65
2021/12/01 11:13:32;;;;;;;2.45;0.47;;;11.20;99.90;;;;;;5074567;28;20426;-66
2021/12/01 11:16:00;;;;;;;2.20;0.40;;;12.10;99.90;;;;;;5030946;28;20112;-65
2021/12/01 11:18:29;;;;;;;2.53;0.50;;;12.40;98.30;;;;;;5064282;28;20035;-65
2021/12/01 11:21:00;;;;;;;1.27;0.50;;;12.40;97.30;;;;;;5075228;28;20027;-66
2021/12/01 11:23:31;;;;;;;3.38;0.50;;;12.30;96.60;;;;;;5092987;28;20346;-66
2021/12/01 11:26:08;;;;;;;1.70;0.43;;;12.20;96.50;;;;;;5093111;28;20024;-66
2021/12/01 11:28:46;;;;;;;2.40;0.55;;;12.00;96.50;;;;;;5075133;28;20047;-66
2021/12/01 11:31:14;;;;;;;3.72;0.55;;;11.70;96.70;;;;;;5093386;28;20024;-65
2021/12/01 11:33:44;;;;;;;2.33;0.60;;;11.40;97.00;;;;;;5070547;28;20048;-66
2021/12/01 11:36:15;;;;;;;6.38;1.35;;;11.30;97.20;;;;;;5072787;28;20021;-65
2021/12/01 11:38:41;;;;;;;2.03;0.40;;;11.10;97.60;;;;;;5072711;28;20049;-65
2021/12/01 11:41:09;;;;;;;8.13;0.60;;;11.00;98.00;;;;;;5071496;28;20108;-65
2021/12/01 11:43:37;;;;;;;3.30;0.65;;;11.00;98.10;;;;;;5071974;28;20067;-65
2021/12/01 11:46:04;;;;;;;2.72;0.50;;;10.90;98.20;;;;;;5072503;28;20024;-65
2021/12/01 11:48:33;;;;;;;5.15;0.70;;;10.80;98.30;;;;;;5073006;28;20049;-65
2021/12/01 11:51:11;;;;;;;6.68;0.80;;;10.80;98.50;;;;;;5074238;28;20026;-65
2021/12/01 11:53:42;;;;;;;4.78;0.50;;;10.70;98.60;;;;;;5072331;28;20435;-65
2021/12/01 11:56:34;;;;;;;2.08;0.50;;;10.60;98.50;;;;;;5087117;28;20059;-66
2021/12/01 11:59:16;;;;;;;5.43;0.60;;;10.60;98.50;;;;;;5088719;28;20028;-66
2021/12/01 12:01:44;;;;;;;9.57;0.60;;;10.60;98.70;;;;;;5082786;28;20047;-65
2021/12/01 12:04:09;;;;;;;5.15;0.70;;;10.50;98.60;;;;;;5090813;28;20043;-65
2021/12/01 12:06:43;;;;;;;3.92;0.40;;;10.60;98.80;;;;;;5072814;28;20472;-65
2021/12/01 12:09:11;;;;;;;5.55;0.60;;;10.60;98.60;;;;;;5071472;28;20451;-66
2021/12/01 12:11:39;;;;;;;3.22;0.50;;;10.50;98.70;;;;;;5090781;28;20315;-65
2021/12/01 12:14:08;;;;;;;5.07;0.98;;;10.40;98.80;;;;;;5089402;28;20036;-65
2021/12/01 12:16:35;;;;;;;3.00;0.60;;;10.40;99.00;;;;;;5089722;28;20375;-65
2021/12/01 12:19:01;;;;;;;4.07;0.60;;;10.30;99.10;;;;;;5090584;28;20490;-65
2021/12/01 12:21:38;;;;;;;7.07;0.80;;;10.30;99.20;;;;;;5087371;28;20423;-65
2021/12/01 12:24:05;;;;;;;9.00;1.13;;;10.20;99.30;;;;;;5088139;28;20055;-66
2021/12/01 12:26:42;;;;;;;5.90;1.10;;;10.20;99.50;;;;;;5091944;28;20107;-65
2021/12/01 12:29:16;;;;;;;5.30;0.70;;;10.20;99.50;;;;;;5094762;28;20074;-66
2021/12/01 12:31:44;;;;;;;7.38;0.80;;;10.10;99.60;;;;;;5096700;28;20077;-65
2021/12/01 12:34:18;;;;;;;8.27;1.00;;;10.10;99.70;;;;;;5076881;28;20063;-66
2021/12/01 12:37:17;;;;;;;9.93;1.67;;;10.10;99.70;;;;;;5096268;28;20032;-65
2021/12/01 12:39:46;;;;;;;6.60;1.00;;;10.10;99.70;;;;;;5095804;28;20036;-66
2021/12/01 12:42:13;;;;;;;5.53;0.80;;;10.10;99.80;;;;;;5092650;28;20050;-66
2021/12/01 12:44:46;;;;;;;5.40;1.35;;;10.10;99.70;;;;;;5078184;28;20028;-65
2021/12/01 12:47:15;;;;;;;5.38;0.75;;;10.00;99.60;;;;;;5096109;28;20020;-66
2021/12/01 12:50:02;;;;;;;8.93;1.08;;;10.00;99.40;;;;;;5078042;28;20024;-66
2021/12/01 12:53:06;;;;;;;5.30;0.90;;;10.00;99.40;;;;;;5090839;28;20020;-65
2021/12/01 12:55:35;;;;;;;5.22;0.70;;;10.00;99.30;;;;;;5070689;28;20109;-66
2021/12/01 12:58:09;;;;;;;4.22;0.95;;;10.00;99.30;;;;;;5094391;28;20057;-66
2021/12/01 13:00:57;;;;;;;5.88;0.88;;;10.00;99.10;;;;;;5092508;28;20109;-66
2021/12/01 13:03:23;;;;;;;4.57;1.02;;;10.00;99.00;;;;;;5092020;28;20047;-66
2021/12/01 13:05:59;;;;;;;6.47;0.65;;;10.00;99.00;;;;;;5095755;28;20020;-66
2021/12/01 13:08:26;;;;;;;7.43;1.13;;;10.00;98.90;;;;;;5095922;28;20095;-65
2021/12/01 13:10:52;;;;;;;5.00;0.80;;;10.00;98.70;;;;;;5095705;28;20066;-65
2021/12/01 13:13:39;;;;;;;5.20;0.70;;;10.00;98.80;;;;;;5095651;28;20472;-65
2021/12/01 13:16:08;;;;;;;5.60;0.50;;;10.00;98.20;;;;;;5095944;28;20028;-65
2021/12/01 13:18:35;;;;;;;2.35;0.43;;;9.90;98.20;;;;;;5094082;28;20020;-66